Time;durP1;ratioP1;P1;durP2;ratioP2;P2;SDS_P1;SDS_P2;PMS_P1;PMS_P2;Temp;Humidity;BMP_temperature;BMP_pressure;BME280_temperature;BME280_humidity;BME280_pressure;Samples;Min_cycle;Max_cycle;Signal;HPM_P1;HPM_P2
2022/02/07 00:00:32;;;;;;;21.13;3.90;;;;;;;2.81;83.87;101036.56;5040104;28;20037;-73
2022/02/07 00:05:26;;;;;;;18.00;2.80;;;;;;;2.62;85.00;101053.31;5074497;28;20048;-72
2022/02/07 00:07:53;;;;;;;13.82;2.25;;;;;;;2.59;85.10;101065.78;5074513;28;20043;-73
2022/02/07 00:10:19;;;;;;;14.55;2.15;;;;;;;2.62;85.24;101066.44;5073269;28;20032;-73
2022/02/07 00:12:47;;;;;;;21.60;3.08;;;;;;;2.62;84.57;101078.75;5074475;28;20033;-74
2022/02/07 00:15:14;;;;;;;16.63;2.72;;;;;;;2.63;85.34;101080.44;5073875;28;20119;-73
2022/02/07 00:17:39;;;;;;;16.23;2.63;;;;;;;2.60;84.41;101075.34;5074508;28;20040;-73
2022/02/07 00:20:11;;;;;;;12.55;2.58;;;;;;;2.56;83.82;101087.78;5073978;28;20064;-74
2022/02/07 00:22:36;;;;;;;;;;;;;;;2.59;84.35;101077.13;5074548;28;20383;-74
2022/02/07 00:25:03;;;;;;;20.88;4.10;;;;;;;2.69;85.11;101095.00;5074217;28;19916;-73
2022/02/07 00:27:28;;;;;;;17.98;3.10;;;;;;;2.78;85.55;101100.63;5072804;28;20426;-76
2022/02/07 00:29:53;;;;;;;27.00;3.90;;;;;;;2.95;83.58;101115.47;5074773;28;20036;-74
2022/02/07 00:32:19;;;;;;;22.23;4.15;;;;;;;3.12;79.69;101113.72;5074524;28;20389;-74
2022/02/07 00:34:44;;;;;;;24.52;3.03;;;;;;;3.21;78.38;101113.22;5073697;28;20115;-74
2022/02/07 00:37:09;;;;;;;16.90;3.00;;;;;;;3.28;76.90;101127.72;5074064;28;20029;-73
2022/02/07 00:39:52;;;;;;;36.10;3.75;;;;;;;3.37;76.03;101130.78;5073508;28;20039;-74
2022/02/07 00:42:26;;;;;;;16.63;2.88;;;;;;;3.37;76.84;101142.13;5074393;28;20029;-74
2022/02/07 00:44:51;;;;;;;25.95;3.97;;;;;;;3.43;76.55;101143.59;5073811;28;20111;-75
2022/02/07 00:47:17;;;;;;;23.67;3.13;;;;;;;3.48;75.93;101159.97;5072249;28;20123;-74
2022/02/07 00:49:43;;;;;;;18.38;2.85;;;;;;;3.47;74.62;101164.38;5073979;28;20032;-73
2022/02/07 00:52:08;;;;;;;21.23;3.00;;;;;;;3.55;73.84;101171.84;5072274;28;20032;-74
2022/02/07 00:54:34;;;;;;;28.52;4.15;;;;;;;3.68;73.43;101177.28;5073332;28;20469;-75
2022/02/07 00:57:00;;;;;;;20.25;3.13;;;;;;;3.70;72.75;101191.19;5073378;28;20174;-73
2022/02/07 00:59:25;;;;;;;30.85;4.10;;;;;;;3.70;70.85;101196.44;5073938;28;20044;-74
2022/02/07 01:01:51;;;;;;;15.45;2.67;;;;;;;3.72;70.44;101205.13;5072416;28;20036;-74
2022/02/07 01:04:16;;;;;;;19.17;3.20;;;;;;;3.78;71.25;101209.22;5073257;28;20386;-73
2022/02/07 01:06:41;;;;;;;13.32;3.20;;;;;;;3.79;72.05;101206.50;5073325;28;20025;-74
2022/02/07 01:09:14;;;;;;;12.70;2.63;;;;;;;3.77;71.17;101221.50;5073719;28;20040;-74
2022/02/07 01:11:55;;;;;;;21.15;3.22;;;;;;;3.69;71.86;101235.09;5073497;28;20086;-74
2022/02/07 01:49:50;;;;;;;22.48;4.40;;;;;;;3.77;70.18;101408.38;5073398;28;20044;-74
2022/02/07 01:52:37;;;;;;;24.63;2.17;;;;;;;3.74;70.39;101419.09;5072710;28;20045;-74
2022/02/07 01:55:30;;;;;;;28.80;3.25;;;;;;;3.70;71.34;101428.94;5072600;28;20028;-74
2022/02/07 01:57:57;;;;;;;22.25;3.15;;;;;;;3.71;72.26;101440.31;5073275;28;20094;-75
2022/02/07 02:00:23;;;;;;;14.55;2.78;;;;;;;3.67;72.79;101446.66;5072651;28;20111;-74
2022/02/07 02:02:48;;;;;;;22.90;3.13;;;;;;;3.63;72.58;101456.50;5071339;28;20029;-74
2022/02/07 02:05:14;;;;;;;29.88;3.78;;;;;;;3.61;71.82;101452.22;5073142;28;20032;-74
2022/02/07 02:07:40;;;;;;;20.73;2.90;;;;;;;3.56;71.78;101459.53;5072802;28;20036;-74
2022/02/07 02:10:06;;;;;;;14.70;2.55;;;;;;;3.61;70.42;101482.03;5073010;28;20045;-74
2022/02/07 02:12:37;;;;;;;15.52;2.42;;;;;;;3.70;69.88;101480.69;5075136;28;20093;-75
2022/02/07 02:38:54;;;;;;;17.15;3.38;;;;;;;3.92;70.67;101542.78;5076331;28;20043;-74
2022/02/07 02:46:30;;;;;;;27.83;3.08;;;;;;;3.95;70.01;101563.69;5076151;28;20128;-74
2022/02/07 02:49:01;;;;;;;22.27;3.78;;;;;;;3.98;70.24;101569.66;5076211;28;20040;-74
2022/02/07 02:51:26;;;;;;;14.75;2.60;;;;;;;4.02;70.01;101560.66;5074961;28;20043;-74
2022/02/07 02:53:51;;;;;;;20.35;3.83;;;;;;;4.07;68.86;101573.59;5075778;28;20040;-75
2022/02/07 02:56:17;;;;;;;17.75;2.80;;;;;;;4.05;68.73;101576.31;5075547;28;20116;-74
2022/02/07 02:58:43;;;;;;;20.42;3.65;;;;;;;4.02;69.21;101571.22;5074397;28;20119;-73
2022/02/07 03:01:08;;;;;;;22.15;2.80;;;;;;;4.02;69.71;101570.38;5075222;28;20021;-73
2022/02/07 03:03:33;;;;;;;27.20;3.53;;;;;;;4.01;70.35;101601.09;5076155;28;20490;-74
2022/02/07 03:05:59;;;;;;;19.92;3.20;;;;;;;4.00;70.91;101609.06;5075550;28;20033;-73
2022/02/07 03:08:25;;;;;;;23.67;3.65;;;;;;;3.91;71.71;101618.28;5075872;28;20032;-73
2022/02/07 03:13:31;;;;;;;25.42;3.03;;;;;;;3.99;71.10;101625.81;5075612;28;20051;-73
2022/02/07 03:18:41;;;;;;;19.83;2.78;;;;;;;3.93;71.86;101640.16;5075154;28;20067;-73
2022/02/07 03:21:07;;;;;;;18.13;3.50;;;;;;;3.94;72.59;101657.66;5075597;28;20161;-74
2022/02/07 03:23:33;;;;;;;24.48;3.67;;;;;;;4.05;71.85;101649.22;5074161;28;20512;-75
2022/02/07 03:25:58;;;;;;;14.35;2.50;;;;;;;4.06;72.53;101666.69;5075519;28;20496;-74
2022/02/07 03:28:26;;;;;;;36.72;4.65;;;;;;;4.13;71.01;101670.75;5075287;28;20064;-73
2022/02/07 03:30:52;;;;;;;19.30;3.00;;;;;;;4.15;71.06;101679.44;5075692;28;20055;-74
2022/02/07 03:33:17;;;;;;;20.02;3.08;;;;;;;4.12;71.76;101694.53;5075734;28;20036;-73
2022/02/07 03:35:43;;;;;;;22.45;3.50;;;;;;;4.10;72.14;101701.66;5075018;28;20025;-74
2022/02/07 03:38:09;;;;;;;19.33;3.22;;;;;;;4.11;72.76;101719.19;5074881;28;20025;-74
2022/02/07 03:40:36;;;;;;;29.40;4.05;;;;;;;4.09;72.89;101716.63;5073592;28;20495;-73
2022/02/07 03:43:01;;;;;;;23.10;3.67;;;;;;;4.08;73.36;101730.72;5074481;28;20381;-74
2022/02/07 03:45:27;;;;;;;31.98;4.05;;;;;;;4.16;74.06;101739.06;5074970;28;20032;-74
2022/02/07 03:47:52;;;;;;;25.17;5.18;;;;;;;4.14;74.04;101751.47;5074577;28;20058;-74
2022/02/07 03:50:18;;;;;;;25.25;3.45;;;;;;;4.13;74.42;101760.28;5074788;28;20214;-73
2022/02/07 03:52:43;;;;;;;18.67;3.38;;;;;;;4.14;73.30;101756.75;5075093;28;20432;-74
2022/02/07 03:55:09;;;;;;;21.08;3.08;;;;;;;4.14;73.26;101762.00;5074907;28;20044;-73
2022/02/07 03:57:34;;;;;;;28.05;3.90;;;;;;;4.16;72.68;101773.31;5074761;28;20031;-74
2022/02/07 04:00:04;;;;;;;29.63;3.80;;;;;;;4.15;73.43;101776.03;5073086;28;20449;-76
2022/02/07 04:02:29;;;;;;;19.67;3.95;;;;;;;4.17;73.06;101780.28;5073678;28;20524;-73
2022/02/07 04:05:07;;;;;;;27.70;2.95;;;;;;;4.21;73.14;101784.50;5074298;28;20041;-74
2022/02/07 04:07:33;;;;;;;26.00;3.42;;;;;;;4.22;72.47;101786.22;5075044;28;20032;-74
2022/02/07 04:09:58;;;;;;;26.00;3.22;;;;;;;4.24;72.88;101791.41;5074208;28;20555;-74
2022/02/07 04:12:27;;;;;;;28.60;3.63;;;;;;;4.18;73.33;101797.81;5074522;28;20043;-74
2022/02/07 04:14:52;;;;;;;34.08;5.55;;;;;;;4.27;72.48;101798.28;5075261;28;20029;-74
2022/02/07 04:17:23;;;;;;;25.17;3.50;;;;;;;4.30;72.56;101806.03;5074214;28;20036;-74
2022/02/07 04:19:56;;;;;;;26.33;3.42;;;;;;;4.31;73.06;101815.66;5074017;28;20068;-73
2022/02/07 04:22:21;;;;;;;26.50;3.92;;;;;;;4.34;73.84;101823.41;5074274;28;20088;-74
2022/02/07 04:24:46;;;;;;;27.85;3.40;;;;;;;4.33;74.09;101833.09;5073840;28;20484;-74
2022/02/07 04:27:12;;;;;;;27.25;3.80;;;;;;;4.34;74.80;101832.16;5055985;28;20473;-74
2022/02/07 04:29:37;;;;;;;20.80;3.95;;;;;;;4.34;74.87;101844.50;5074066;28;20032;-74
2022/02/07 04:32:03;;;;;;;23.55;3.03;;;;;;;4.35;74.83;101846.22;5073953;28;20085;-75
2022/02/07 04:34:28;;;;;;;34.17;4.68;;;;;;;4.34;74.71;101858.50;5073262;28;20032;-73
2022/02/07 04:36:56;;;;;;;22.70;2.85;;;;;;;4.35;73.97;101854.97;5073161;28;20032;-74
2022/02/07 04:39:22;;;;;;;26.67;3.45;;;;;;;4.35;74.17;101868.13;5073763;28;20123;-74
2022/02/07 04:41:47;;;;;;;24.42;3.92;;;;;;;4.40;73.48;101868.78;5074676;28;20084;-74
2022/02/07 04:44:20;;;;;;;22.25;4.22;;;;;;;4.43;73.13;101878.28;5072628;28;20043;-73
2022/02/07 04:49:45;;;;;;;21.73;3.35;;;;;;;4.42;73.31;101900.34;5073687;28;20072;-74
2022/02/07 04:52:36;;;;;;;23.10;3.72;;;;;;;4.45;73.72;101913.34;5073529;28;20472;-74
2022/02/07 04:55:13;;;;;;;25.77;4.47;;;;;;;4.44;73.91;101911.66;5074275;28;20039;-74
2022/02/07 04:57:54;;;;;;;27.58;3.92;;;;;;;4.43;74.00;101924.91;5072769;28;20115;-74
2022/02/07 05:15:53;;;;;;;17.42;3.17;;;;;;;4.38;76.68;101954.94;5073661;28;20124;-74
2022/02/07 05:18:20;;;;;;;35.90;4.43;;;;;;;4.35;77.24;101956.88;5072925;28;20111;-74
2022/02/07 05:20:46;;;;;;;24.48;3.45;;;;;;;4.37;77.41;101962.91;5073243;28;20381;-73
2022/02/07 05:23:11;;;;;;;25.20;3.67;;;;;;;4.38;77.82;101977.81;5071697;28;20039;-75
2022/02/07 05:25:38;;;;;;;23.77;3.65;;;;;;;4.37;78.06;101979.59;5073106;28;20040;-74
2022/02/07 05:28:04;;;;;;;30.77;3.72;;;;;;;4.42;78.48;101989.94;5073404;28;20036;-74
2022/02/07 05:30:29;;;;;;;27.50;4.35;;;;;;;4.41;79.00;101996.97;5073412;28;20089;-74
2022/02/07 05:32:55;;;;;;;28.42;4.35;;;;;;;4.43;79.07;102003.97;5072904;28;20068;-74
2022/02/07 05:35:20;;;;;;;30.15;4.40;;;;;;;4.44;79.07;102013.59;5073395;28;20119;-74
2022/02/07 05:37:45;;;;;;;32.10;4.28;;;;;;;4.43;79.15;102017.97;5072748;28;20029;-74
2022/02/07 05:40:21;;;;;;;25.48;3.88;;;;;;;4.40;79.48;102020.75;5072772;28;20460;-75
2022/02/07 05:42:47;;;;;;;31.70;3.30;;;;;;;4.36;78.74;102020.06;5072453;28;20037;-74
2022/02/07 05:45:12;;;;;;;28.67;3.75;;;;;;;4.36;78.76;102020.06;5071710;28;20507;-76
2022/02/07 05:47:38;;;;;;;19.80;3.35;;;;;;;4.34;78.57;102019.25;5072443;28;20043;-74
2022/02/07 05:50:04;;;;;;;33.67;4.00;;;;;;;4.36;78.04;102027.09;5072675;28;20064;-74
2022/02/07 05:52:30;;;;;;;28.40;3.35;;;;;;;4.34;77.20;102028.94;5071762;28;20086;-74
2022/02/07 05:54:56;;;;;;;23.98;3.75;;;;;;;4.36;77.13;102038.50;5071422;28;20469;-74
2022/02/07 05:57:21;;;;;;;29.45;3.67;;;;;;;4.33;77.84;102043.03;5072945;28;20036;-75
2022/02/07 05:59:47;;;;;;;35.97;4.85;;;;;;;4.37;77.99;102040.22;5071455;28;20483;-74
2022/02/07 06:02:12;;;;;;;35.60;4.03;;;;;;;4.38;78.21;102048.97;5072277;28;20098;-74
2022/02/07 06:04:37;;;;;;;19.85;3.25;;;;;;;4.33;77.97;102046.53;5072280;28;20035;-73
2022/02/07 06:07:03;;;;;;;30.83;3.45;;;;;;;4.29;78.18;102052.88;5072585;28;20099;-73
2022/02/07 06:09:28;;;;;;;19.00;3.67;;;;;;;4.26;78.42;102054.81;5072120;28;20039;-73
2022/02/07 06:11:55;;;;;;;36.17;4.25;;;;;;;4.21;78.79;102058.47;5073009;28;20040;-74
2022/02/07 06:14:20;;;;;;;27.17;4.47;;;;;;;4.17;78.68;102061.31;5072033;28;20120;-70
2022/02/07 06:16:46;;;;;;;24.90;3.08;;;;;;;4.09;78.89;102066.94;5072759;28;20151;-71
2022/02/07 06:19:11;;;;;;;24.23;4.40;;;;;;;4.07;78.87;102068.75;5072881;28;20479;-70
2022/02/07 06:21:38;;;;;;;32.30;4.53;;;;;;;4.02;79.49;102074.22;5072837;28;20060;-70
2022/02/07 06:24:03;;;;;;;28.83;3.35;;;;;;;4.05;79.44;102070.63;5072450;28;20111;-71
2022/02/07 06:26:30;;;;;;;19.38;3.38;;;;;;;4.09;79.80;102082.75;5072465;28;20060;-70
2022/02/07 06:28:57;;;;;;;27.45;3.58;;;;;;;4.13;79.92;102091.34;5071251;28;20040;-70
2022/02/07 06:31:22;;;;;;;30.25;3.75;;;;;;;4.22;79.36;102098.84;5072219;28;20042;-71
2022/02/07 06:33:47;;;;;;;23.75;4.05;;;;;;;4.27;79.41;102106.56;5072389;28;20033;-70
2022/02/07 06:36:13;;;;;;;24.98;3.53;;;;;;;4.28;79.64;102114.38;5071229;28;20521;-70
2022/02/07 06:38:39;;;;;;;24.80;3.22;;;;;;;4.30;80.03;102119.59;5071852;28;20411;-71
2022/02/07 06:41:05;;;;;;;25.73;3.45;;;;;;;4.33;79.65;102141.41;5072538;28;20111;-70
2022/02/07 06:43:30;;;;;;;24.50;3.65;;;;;;;4.30;80.18;102136.28;5072587;28;20384;-71
2022/02/07 06:45:55;;;;;;;21.48;3.63;;;;;;;4.29;80.28;102158.28;5072307;28;20064;-71
2022/02/07 06:48:21;;;;;;;30.05;3.65;;;;;;;4.29;80.03;102153.00;5070883;28;20036;-72
2022/02/07 06:50:46;;;;;;;18.15;3.22;;;;;;;4.31;79.61;102147.66;5072860;28;20035;-72
2022/02/07 06:53:12;;;;;;;24.48;3.72;;;;;;;4.32;79.64;102167.81;5072294;28;20486;-71
2022/02/07 06:55:37;;;;;;;21.73;3.35;;;;;;;4.31;79.79;102177.50;5072553;28;20045;-72
2022/02/07 06:58:02;;;;;;;24.20;4.20;;;;;;;4.26;79.95;102197.94;5072523;28;20028;-72
2022/02/07 07:00:28;;;;;;;24.90;3.47;;;;;;;4.27;80.13;102204.03;5075664;28;20063;-72
2022/02/07 07:02:53;;;;;;;26.33;3.95;;;;;;;4.27;80.63;102206.69;5075885;28;20396;-72
2022/02/07 07:05:22;;;;;;;35.17;4.18;;;;;;;4.33;80.64;102214.31;5075201;28;20043;-72
2022/02/07 07:07:48;;;;;;;32.05;3.90;;;;;;;4.36;80.52;102211.56;5075525;28;20057;-73
2022/02/07 07:10:15;;;;;;;29.05;3.30;;;;;;;4.39;80.90;102208.81;5075573;28;20037;-72
2022/02/07 07:12:43;;;;;;;31.10;3.75;;;;;;;4.42;80.86;102203.41;5075287;28;20511;-72
2022/02/07 07:15:26;;;;;;;32.10;4.82;;;;;;;4.46;80.80;102219.94;5075503;28;20483;-72
2022/02/07 07:17:51;;;;;;;20.10;3.67;;;;;;;4.47;80.58;102225.13;5075681;28;20036;-72
2022/02/07 07:20:16;;;;;;;28.95;3.60;;;;;;;4.49;80.51;102225.06;5075338;28;20056;-72
2022/02/07 07:22:42;;;;;;;27.30;4.10;;;;;;;4.51;80.77;102228.50;5075251;28;20033;-71
2022/02/07 07:25:13;;;;;;;29.65;3.53;;;;;;;4.47;81.05;102238.31;5075164;28;20029;-72
2022/02/07 07:27:54;;;;;;;26.23;4.25;;;;;;;4.48;80.83;102250.59;5075754;28;20063;-71
2022/02/07 07:30:20;;;;;;;23.55;3.58;;;;;;;4.48;80.82;102254.97;5075262;28;20040;-71
2022/02/07 07:32:45;;;;;;;26.38;3.63;;;;;;;4.47;81.30;102264.69;5073752;28;20028;-71
2022/02/07 07:35:11;;;;;;;28.77;4.07;;;;;;;4.52;81.02;102275.91;5075453;28;20032;-71
2022/02/07 07:37:36;;;;;;;25.63;3.65;;;;;;;4.55;80.98;102273.13;5073846;28;20111;-72
2022/02/07 07:40:01;;;;;;;20.95;3.28;;;;;;;4.60;80.79;102291.38;5074989;28;20079;-71
2022/02/07 07:42:28;;;;;;;27.15;3.47;;;;;;;4.62;80.97;102297.44;5073521;28;20449;-71
2022/02/07 07:44:55;;;;;;;19.88;3.85;;;;;;;4.64;80.73;102300.00;5075122;28;20048;-71
2022/02/07 07:47:25;;;;;;;31.27;4.65;;;;;;;4.58;81.50;102303.75;5075085;28;20040;-71
2022/02/07 07:50:03;;;;;;;24.85;3.45;;;;;;;4.46;82.91;102310.41;5074943;28;20060;-72
2022/02/07 07:52:43;;;;;;;26.42;3.70;;;;;;;4.38;83.22;102334.44;5073686;28;20040;-71
2022/02/07 08:03:26;;;;;;;28.02;3.72;;;;;;;4.50;82.98;102340.16;5074509;28;20039;-72
2022/02/07 08:06:08;;;;;;;25.60;3.70;;;;;;;4.56;82.37;102351.28;5074209;28;20040;-71
2022/02/07 08:08:44;;;;;;;28.88;3.40;;;;;;;4.62;82.06;102359.88;5074359;28;20048;-72
2022/02/07 08:11:12;;;;;;;24.00;3.40;;;;;;;4.67;81.61;102361.41;5074651;28;20473;-71
2022/02/07 08:13:41;;;;;;;25.70;4.07;;;;;;;4.73;81.27;102361.16;5073942;28;20029;-70
2022/02/07 08:16:06;;;;;;;21.30;3.67;;;;;;;4.82;81.22;102367.81;5072631;28;20060;-71
2022/02/07 08:18:32;;;;;;;26.23;3.45;;;;;;;4.86;80.28;102364.09;5074289;28;20144;-71
2022/02/07 08:20:57;;;;;;;28.33;4.28;;;;;;;4.88;80.64;102371.94;5073941;28;20074;-71
2022/02/07 08:23:23;;;;;;;20.90;3.53;;;;;;;4.86;80.57;102372.03;5074058;28;20082;-71
2022/02/07 08:25:49;;;;;;;25.27;3.47;;;;;;;4.91;80.25;102393.81;5073925;28;20507;-72
2022/02/07 08:28:14;;;;;;;16.45;3.13;;;;;;;4.96;79.67;102388.34;5073643;28;20032;-70
2022/02/07 08:30:39;;;;;;;28.45;3.63;;;;;;;4.94;79.54;102388.41;5073762;28;20036;-71
2022/02/07 08:33:06;;;;;;;19.42;3.20;;;;;;;4.94;79.25;102385.75;5073728;28;20172;-71
2022/02/07 08:35:31;;;;;;;24.52;3.38;;;;;;;4.91;77.95;102377.97;5074486;28;20036;-72
2022/02/07 08:37:58;;;;;;;32.20;5.82;;;;;;;4.93;78.47;102381.41;5073056;28;20119;-70
2022/02/07 08:40:24;;;;;;;21.15;3.53;;;;;;;4.96;77.87;102385.69;5073804;28;20036;-71
2022/02/07 08:42:49;;;;;;;22.83;3.88;;;;;;;5.02;78.15;102400.41;5074016;28;20108;-70
2022/02/07 08:45:15;;;;;;;23.40;3.20;;;;;;;5.10;77.36;102403.56;5073654;28;20040;-72
2022/02/07 08:47:42;;;;;;;21.58;3.03;;;;;;;5.16;77.78;102413.84;5073375;28;20040;-72
2022/02/07 08:50:09;;;;;;;23.95;3.17;;;;;;;5.24;77.36;102424.97;5073545;28;20035;-71
2022/02/07 08:52:34;;;;;;;20.30;2.72;;;;;;;5.33;76.37;102431.63;5073310;28;20056;-71
2022/02/07 08:55:02;;;;;;;18.08;3.10;;;;;;;5.39;75.40;102441.91;5073821;28;20452;-71
2022/02/07 08:57:34;;;;;;;23.27;2.95;;;;;;;5.49;74.85;102455.56;5073493;28;20052;-71
2022/02/07 09:00:22;;;;;;;16.48;2.80;;;;;;;5.45;74.96;102451.38;5073304;28;20033;-71
2022/02/07 09:05:36;;;;;;;22.65;3.17;;;;;;;5.49;76.13;102474.03;5073570;28;20060;-72
2022/02/07 09:08:22;;;;;;;19.50;3.63;;;;;;;5.53;76.47;102485.34;5073286;28;20037;-71
2022/02/07 09:10:49;;;;;;;20.48;2.65;;;;;;;5.53;76.38;102483.56;5073714;28;20098;-72
2022/02/07 09:13:16;;;;;;;16.52;2.80;;;;;;;5.56;76.08;102487.84;5073343;28;20437;-71
2022/02/07 09:15:54;;;;;;;20.35;3.28;;;;;;;5.51;75.86;102495.97;5073619;28;20032;-71
2022/02/07 09:18:20;;;;;;;21.80;3.20;;;;;;;5.50;76.02;102507.47;5073604;28;20140;-73
2022/02/07 09:20:45;;;;;;;17.15;3.30;;;;;;;5.50;76.01;102499.53;5072452;28;20088;-73
2022/02/07 09:23:11;;;;;;;29.02;3.75;;;;;;;5.50;76.19;102514.53;5072743;28;20033;-72
2022/02/07 09:25:37;;;;;;;20.25;2.80;;;;;;;5.52;75.48;102510.88;5072537;28;20036;-71
2022/02/07 09:28:03;;;;;;;24.00;3.78;;;;;;;5.59;75.79;102514.13;5073005;28;20055;-72
2022/02/07 09:30:29;;;;;;;18.75;2.80;;;;;;;5.59;76.87;102532.63;5073245;28;20036;-71
2022/02/07 09:32:54;;;;;;;21.65;2.75;;;;;;;5.41;78.08;102527.19;5072793;28;20037;-72
2022/02/07 09:35:20;;;;;;;24.38;3.30;;;;;;;5.43;78.67;102532.38;5072825;28;20520;-72
2022/02/07 09:37:46;;;;;;;16.33;2.83;;;;;;;5.30;78.22;102539.97;5072661;28;20476;-74
2022/02/07 09:40:13;;;;;;;18.45;3.15;;;;;;;5.25;78.61;102552.50;5072671;28;20068;-73
2022/02/07 09:42:42;;;;;;;18.65;2.72;;;;;;;5.24;78.36;102553.41;5055144;28;20134;-72
2022/02/07 09:45:14;;;;;;;21.40;2.47;;;;;;;5.29;78.12;102567.28;5072359;28;20020;-73
2022/02/07 09:47:40;;;;;;;20.70;2.90;;;;;;;5.36;77.42;102566.13;5071511;28;20464;-73
2022/02/07 09:50:06;;;;;;;14.35;2.88;;;;;;;5.38;77.79;102579.25;5072300;28;20052;-72
2022/02/07 09:52:33;;;;;;;18.27;2.97;;;;;;;5.39;77.74;102584.47;5072481;28;20032;-71
2022/02/07 09:54:58;;;;;;;21.08;3.78;;;;;;;5.45;78.09;102593.94;5072942;28;20112;-71
2022/02/07 09:57:24;;;;;;;22.92;2.55;;;;;;;5.41;79.61;102602.88;5072588;28;20098;-72
2022/02/07 09:59:51;;;;;;;23.00;3.42;;;;;;;5.28;79.99;102610.44;5072149;28;20051;-74
2022/02/07 10:02:29;;;;;;;16.98;2.55;;;;;;;5.27;80.80;102622.78;5072359;28;20457;-73
2022/02/07 10:04:57;;;;;;;20.45;2.88;;;;;;;5.40;79.87;102627.56;5072781;28;20024;-72
2022/02/07 10:39:47;;;;;;;18.60;3.35;;;;;;;6.15;72.36;102668.50;5076276;28;20064;-71
2022/02/07 10:44:59;;;;;;;20.88;2.75;;;;;;;6.06;73.55;102663.63;5076210;28;20447;-71
2022/02/07 10:47:36;;;;;;;13.02;2.72;;;;;;;6.09;74.29;102667.00;5076319;28;20423;-72
2022/02/07 10:50:02;;;;;;;16.13;3.15;;;;;;;6.35;74.13;102670.31;5075698;28;20123;-72
2022/02/07 10:52:28;;;;;;;18.90;2.85;;;;;;;6.40;73.96;102672.75;5075815;28;20179;-72
2022/02/07 10:54:54;;;;;;;21.30;2.63;;;;;;;6.49;74.12;102673.22;5075318;28;20526;-72
2022/02/07 10:57:20;;;;;;;16.60;2.47;;;;;;;6.45;73.12;102669.00;5075560;28;20036;-72
2022/02/07 10:59:46;;;;;;;31.05;3.30;;;;;;;6.28;73.25;102677.63;5075997;28;20025;-72
2022/02/07 11:05:05;;;;;;;21.55;3.05;;;;;;;5.89;74.16;102673.09;5076065;28;20146;-73
2022/02/07 11:07:33;;;;;;;19.10;2.70;;;;;;;5.78;74.49;102665.63;5075628;28;20033;-72
2022/02/07 11:10:24;;;;;;;15.40;2.95;;;;;;;5.84;74.82;102661.88;5075296;28;20036;-72
2022/02/07 11:15:38;;;;;;;13.85;2.40;;;;;;;6.02;75.36;102677.88;5075565;28;20048;-72
2022/02/07 11:18:32;;;;;;;14.88;2.53;;;;;;;6.40;72.43;102678.03;5075792;28;20423;-72
2022/02/07 11:21:33;;;;;;;19.85;2.65;;;;;;;6.35;72.66;102671.16;5074479;28;20080;-72
2022/02/07 11:24:51;;;;;;;18.05;2.83;;;;;;;6.49;72.95;102664.41;5075164;28;20044;-72
2022/02/07 11:27:34;;;;;;;16.13;2.40;;;;;;;6.92;70.37;102658.97;5075273;28;20147;-72
2022/02/07 11:30:02;;;;;;;15.10;2.80;;;;;;;6.89;70.26;102670.56;5074836;28;20078;-74
2022/02/07 11:32:40;;;;;;;24.90;3.25;;;;;;;6.75;71.69;102665.03;5075049;28;20463;-72
2022/02/07 11:35:31;;;;;;;21.63;2.80;;;;;;;6.69;71.50;102664.38;5075220;28;20035;-71
2022/02/07 11:38:02;;;;;;;12.35;2.15;;;;;;;6.48;71.58;102650.34;5075010;28;20032;-72
2022/02/07 11:40:33;;;;;;;30.58;3.25;;;;;;;6.43;72.21;102651.47;5074777;28;20109;-74
2022/02/07 11:43:13;;;;;;;14.35;2.95;;;;;;;6.55;71.64;102656.19;5074568;28;20039;-73
2022/02/07 11:46:05;;;;;;;14.45;2.67;;;;;;;6.65;71.43;102656.66;5072558;28;20477;-73
2022/02/07 11:48:43;;;;;;;21.52;3.00;;;;;;;6.89;70.90;102665.25;5075295;28;20123;-72
2022/02/07 11:51:34;;;;;;;24.15;2.22;;;;;;;7.03;69.49;102668.16;5075420;28;20044;-72
2022/02/07 11:54:02;;;;;;;26.45;3.63;;;;;;;7.14;70.19;102669.44;5065686;28;20487;-71
2022/02/07 11:56:42;;;;;;;16.48;2.40;;;;;;;7.33;70.08;102664.09;5074205;28;20127;-71
2022/02/07 11:59:18;;;;;;;15.43;3.03;;;;;;;7.56;67.94;102670.97;5074580;28;20075;-71
2022/02/07 12:02:02;;;;;;;16.05;2.60;;;;;;;7.75;67.58;102661.16;5075429;28;20024;-72
2022/02/07 12:04:32;;;;;;;14.02;1.90;;;;;;;7.92;65.70;102660.31;5074768;28;20024;-72
2022/02/07 12:07:16;;;;;;;11.32;2.28;;;;;;;8.27;63.78;102668.28;5074555;28;20064;-72
2022/02/07 12:12:46;;;;;;;9.57;2.13;;;;;;;7.81;63.72;102689.16;5074048;28;20041;-72
2022/02/07 12:15:12;;;;;;;22.75;2.53;;;;;;;7.69;63.46;102687.97;5074358;28;20040;-71
2022/02/07 12:17:58;;;;;;;15.73;2.10;;;;;;;7.27;65.49;102689.13;5076473;28;20020;-74
2022/02/07 12:20:29;;;;;;;16.13;2.00;;;;;;;6.96;67.78;102698.47;5074434;28;20067;-73
2022/02/07 12:22:58;;;;;;;15.80;1.92;;;;;;;7.18;67.14;102685.09;5074575;28;20082;-75
2022/02/07 12:25:30;;;;;;;15.35;2.63;;;;;;;7.39;66.66;102695.63;5074350;28;20028;-72
2022/02/07 12:28:04;;;;;;;15.35;2.40;;;;;;;7.88;65.11;102692.34;5073942;28;20068;-72
2022/02/07 12:30:31;;;;;;;10.15;2.28;;;;;;;8.54;62.92;102699.66;5074870;28;20033;-71
2022/02/07 12:33:04;;;;;;;14.13;3.42;;;;;;;8.95;61.64;102701.88;5073825;28;20034;-73
2022/02/07 12:35:30;;;;;;;17.23;2.17;;;;;;;8.45;62.16;102705.44;5074300;28;20112;-72
2022/02/07 12:37:56;;;;;;;13.77;2.13;;;;;;;8.24;63.78;102705.56;5074693;28;20157;-73
2022/02/07 12:40:22;;;;;;;14.77;2.20;;;;;;;7.83;63.57;102710.28;5073643;28;20032;-73
2022/02/07 12:42:50;;;;;;;13.38;2.38;;;;;;;7.64;65.11;102708.53;5072416;28;20035;-72
2022/02/07 12:45:17;;;;;;;14.02;2.40;;;;;;;7.64;65.07;102713.81;5073734;28;20391;-73
2022/02/07 12:47:48;;;;;;;20.33;2.50;;;;;;;7.60;64.30;102714.91;5073650;28;20032;-71
2022/02/07 12:50:15;;;;;;;13.38;2.13;;;;;;;7.77;63.79;102717.59;5073597;28;20419;-73
2022/02/07 12:52:40;;;;;;;20.35;3.15;;;;;;;8.59;63.36;102704.72;5074025;28;20104;-72
2022/02/07 12:55:08;;;;;;;14.05;2.55;;;;;;;9.25;58.74;102708.25;5073306;28;20465;-72
2022/02/07 12:57:41;;;;;;;15.80;2.10;;;;;;;8.98;58.15;102711.47;5073474;28;20108;-71
2022/02/07 13:00:09;;;;;;;11.68;1.70;;;;;;;9.25;59.83;102732.16;5073719;28;20032;-73
2022/02/07 13:02:34;;;;;;;16.73;2.92;;;;;;;9.46;58.10;102719.50;5072858;28;20411;-72
2022/02/07 13:05:01;;;;;;;16.30;2.40;;;;;;;9.79;58.19;102723.84;5073229;28;20036;-72
2022/02/07 13:07:27;;;;;;;13.05;2.40;;;;;;;10.43;55.06;102727.22;5073141;28;20036;-72
2022/02/07 13:09:54;;;;;;;12.95;2.65;;;;;;;11.09;53.01;102717.84;5073479;28;20384;-72
2022/02/07 13:12:38;;;;;;;11.93;2.65;;;;;;;11.52;51.10;102714.25;5073728;28;20052;-72
2022/02/07 13:15:08;;;;;;;10.90;2.00;;;;;;;11.59;50.00;102715.56;5073733;28;20032;-71
2022/02/07 13:17:37;;;;;;;13.80;2.45;;;;;;;11.77;49.45;102726.81;5073541;28;20044;-71
2022/02/07 13:20:06;;;;;;;10.27;2.65;;;;;;;11.89;47.75;102727.84;5072963;28;20103;-71
2022/02/07 13:22:32;;;;;;;12.65;2.85;;;;;;;12.30;47.30;102729.56;5073067;28;20080;-72
2022/02/07 13:24:57;;;;;;;11.63;2.25;;;;;;;12.26;47.40;102740.56;5073127;28;20563;-75
2022/02/07 13:27:24;;;;;;;8.98;1.98;;;;;;;12.77;47.82;102729.06;5072875;28;20380;-73
2022/02/07 13:29:54;;;;;;;9.65;2.22;;;;;;;13.13;47.14;102725.59;5072920;28;20131;-75
2022/02/07 13:32:25;;;;;;;10.43;2.35;;;;;;;13.16;44.99;102732.56;5073162;28;20052;-73
2022/02/07 13:35:03;;;;;;;9.15;2.00;;;;;;;13.52;42.86;102738.91;5073126;28;20051;-75
2022/02/07 13:37:32;;;;;;;15.07;2.50;;;;;;;13.21;44.12;102727.72;5073241;28;20074;-74
2022/02/07 13:40:03;;;;;;;11.45;2.58;;;;;;;12.95;45.65;102727.75;5072761;28;20042;-73
2022/02/07 13:42:31;;;;;;;10.25;2.10;;;;;;;12.89;44.73;102730.88;5072917;28;20480;-74
2022/02/07 13:45:07;;;;;;;11.68;2.40;;;;;;;12.10;46.05;102730.91;5072816;28;20048;-73
2022/02/07 13:47:34;;;;;;;11.75;2.05;;;;;;;11.24;49.08;102740.00;5072963;28;20032;-71
2022/02/07 13:50:05;;;;;;;9.27;2.30;;;;;;;10.99;50.59;102751.34;5071229;28;20059;-72
2022/02/07 13:52:34;;;;;;;15.90;2.83;;;;;;;10.75;51.23;102753.72;5072618;28;20032;-71
2022/02/07 13:55:13;;;;;;;15.02;2.65;;;;;;;10.06;52.60;102754.16;5071941;28;20363;-70
2022/02/07 13:57:55;;;;;;;15.63;3.15;;;;;;;9.15;55.15;102759.25;5072454;28;20024;-71